sensor_id;sensor_type;location;lat;lon;timestamp;P1;durP1;ratioP1;P2;durP2;ratioP2
63016;SDS011;50274;45.640;11.756;2023-10-31T00:01:54;18.17;;;7.43;;
63016;SDS011;50274;45.640;11.756;2023-10-31T00:04:20;17.15;;;6.47;;
63016;SDS011;50274;45.640;11.756;2023-10-31T00:06:46;17.90;;;6.20;;
63016;SDS011;50274;45.640;11.756;2023-10-31T00:09:12;16.97;;;6.80;;
63016;SDS011;50274;45.640;11.756;2023-10-31T00:11:37;13.35;;;5.47;;
63016;SDS011;50274;45.640;11.756;2023-10-31T00:14:06;11.77;;;5.22;;
63016;SDS011;50274;45.640;11.756;2023-10-31T00:16:32;9.77;;;4.57;;
63016;SDS011;50274;45.640;11.756;2023-10-31T00:18:57;13.05;;;4.88;;
63016;SDS011;50274;45.640;11.756;2023-10-31T00:21:23;13.60;;;5.10;;
63016;SDS011;50274;45.640;11.756;2023-10-31T00:23:49;11.27;;;4.50;;
63016;SDS011;50274;45.640;11.756;2023-10-31T00:26:15;14.50;;;4.82;;
63016;SDS011;50274;45.640;11.756;2023-10-31T00:28:41;11.13;;;4.65;;
63016;SDS011;50274;45.640;11.756;2023-10-31T00:31:07;12.03;;;4.10;;
63016;SDS011;50274;45.640;11.756;2023-10-31T00:33:34;8.48;;;3.72;;
63016;SDS011;50274;45.640;11.756;2023-10-31T00:36:00;10.05;;;3.58;;
63016;SDS011;50274;45.640;11.756;2023-10-31T00:38:26;13.70;;;4.28;;
63016;SDS011;50274;45.640;11.756;2023-10-31T00:40:52;8.73;;;3.53;;
63016;SDS011;50274;45.640;11.756;2023-10-31T00:43:18;10.20;;;3.45;;
63016;SDS011;50274;45.640;11.756;2023-10-31T00:45:44;7.72;;;2.92;;
63016;SDS011;50274;45.640;11.756;2023-10-31T00:48:10;8.83;;;3.17;;
63016;SDS011;50274;45.640;11.756;2023-10-31T00:50:36;7.90;;;3.22;;
63016;SDS011;50274;45.640;11.756;2023-10-31T00:53:01;13.35;;;3.88;;
63016;SDS011;50274;45.640;11.756;2023-10-31T00:55:27;7.43;;;3.10;;
63016;SDS011;50274;45.640;11.756;2023-10-31T00:57:53;7.78;;;3.17;;
63016;SDS011;50274;45.640;11.756;2023-10-31T01:00:19;10.03;;;3.60;;
63016;SDS011;50274;45.640;11.756;2023-10-31T01:02:45;8.13;;;3.22;;
63016;SDS011;50274;45.640;11.756;2023-10-31T01:05:10;7.80;;;2.90;;
63016;SDS011;50274;45.640;11.756;2023-10-31T01:07:36;8.43;;;3.20;;
63016;SDS011;50274;45.640;11.756;2023-10-31T01:10:03;6.50;;;2.63;;
63016;SDS011;50274;45.640;11.756;2023-10-31T01:12:29;5.45;;;2.30;;
63016;SDS011;50274;45.640;11.756;2023-10-31T01:14:56;5.45;;;2.05;;
63016;SDS011;50274;45.640;11.756;2023-10-31T01:17:22;6.77;;;2.20;;
63016;SDS011;50274;45.640;11.756;2023-10-31T01:19:47;5.93;;;2.10;;
63016;SDS011;50274;45.640;11.756;2023-10-31T01:22:13;4.93;;;2.03;;
63016;SDS011;50274;45.640;11.756;2023-10-31T01:24:39;5.47;;;2.10;;
63016;SDS011;50274;45.640;11.756;2023-10-31T01:27:05;7.30;;;2.00;;
63016;SDS011;50274;45.640;11.756;2023-10-31T01:29:31;4.27;;;1.83;;
63016;SDS011;50274;45.640;11.756;2023-10-31T01:31:56;5.90;;;1.67;;
63016;SDS011;50274;45.640;11.756;2023-10-31T01:34:22;4.80;;;1.80;;
63016;SDS011;50274;45.640;11.756;2023-10-31T01:36:48;3.73;;;1.40;;
63016;SDS011;50274;45.640;11.756;2023-10-31T01:39:14;4.65;;;1.70;;
63016;SDS011;50274;45.640;11.756;2023-10-31T01:41:42;6.10;;;1.63;;
63016;SDS011;50274;45.640;11.756;2023-10-31T01:44:09;4.43;;;1.70;;
63016;SDS011;50274;45.640;11.756;2023-10-31T01:46:35;5.18;;;1.88;;
63016;SDS011;50274;45.640;11.756;2023-10-31T01:49:01;8.10;;;1.95;;
63016;SDS011;50274;45.640;11.756;2023-10-31T01:51:28;6.05;;;1.77;;
63016;SDS011;50274;45.640;11.756;2023-10-31T01:53:54;7.43;;;2.40;;
63016;SDS011;50274;45.640;11.756;2023-10-31T01:56:21;7.50;;;2.70;;
63016;SDS011;50274;45.640;11.756;2023-10-31T01:58:48;5.47;;;2.33;;
63016;SDS011;50274;45.640;11.756;2023-10-31T02:01:14;6.18;;;2.88;;
63016;SDS011;50274;45.640;11.756;2023-10-31T02:03:41;5.93;;;2.80;;
63016;SDS011;50274;45.640;11.756;2023-10-31T02:06:07;7.10;;;3.00;;
63016;SDS011;50274;45.640;11.756;2023-10-31T02:08:32;7.20;;;2.50;;
63016;SDS011;50274;45.640;11.756;2023-10-31T02:10:59;6.38;;;2.60;;
63016;SDS011;50274;45.640;11.756;2023-10-31T02:13:25;5.72;;;2.63;;
63016;SDS011;50274;45.640;11.756;2023-10-31T02:15:51;8.00;;;2.80;;
63016;SDS011;50274;45.640;11.756;2023-10-31T02:18:17;7.10;;;3.30;;
63016;SDS011;50274;45.640;11.756;2023-10-31T02:20:43;5.82;;;2.50;;
63016;SDS011;50274;45.640;11.756;2023-10-31T02:23:09;5.85;;;2.67;;
63016;SDS011;50274;45.640;11.756;2023-10-31T02:25:35;7.72;;;3.13;;
63016;SDS011;50274;45.640;11.756;2023-10-31T02:28:01;4.77;;;2.40;;
63016;SDS011;50274;45.640;11.756;2023-10-31T02:30:27;9.02;;;3.70;;
63016;SDS011;50274;45.640;11.756;2023-10-31T02:32:53;9.50;;;4.47;;
63016;SDS011;50274;45.640;11.756;2023-10-31T02:35:19;9.20;;;3.97;;
63016;SDS011;50274;45.640;11.756;2023-10-31T02:37:46;10.23;;;4.27;;
63016;SDS011;50274;45.640;11.756;2023-10-31T02:40:12;11.75;;;3.92;;
63016;SDS011;50274;45.640;11.756;2023-10-31T02:42:38;8.93;;;3.63;;
63016;SDS011;50274;45.640;11.756;2023-10-31T02:45:04;10.07;;;3.90;;
63016;SDS011;50274;45.640;11.756;2023-10-31T02:47:31;6.80;;;3.37;;
63016;SDS011;50274;45.640;11.756;2023-10-31T02:49:57;12.57;;;4.95;;
63016;SDS011;50274;45.640;11.756;2023-10-31T02:52:22;9.38;;;4.78;;
63016;SDS011;50274;45.640;11.756;2023-10-31T02:54:48;13.53;;;5.63;;
63016;SDS011;50274;45.640;11.756;2023-10-31T02:57:15;9.60;;;5.32;;
63016;SDS011;50274;45.640;11.756;2023-10-31T02:59:41;12.48;;;5.57;;
63016;SDS011;50274;45.640;11.756;2023-10-31T03:02:07;12.03;;;6.43;;
63016;SDS011;50274;45.640;11.756;2023-10-31T03:04:33;11.35;;;6.57;;
63016;SDS011;50274;45.640;11.756;2023-10-31T03:06:59;12.68;;;7.03;;
63016;SDS011;50274;45.640;11.756;2023-10-31T03:09:24;12.60;;;6.67;;
63016;SDS011;50274;45.640;11.756;2023-10-31T03:11:50;11.13;;;6.63;;
63016;SDS011;50274;45.640;11.756;2023-10-31T03:14:16;11.57;;;6.00;;
63016;SDS011;50274;45.640;11.756;2023-10-31T03:16:42;14.68;;;6.25;;
63016;SDS011;50274;45.640;11.756;2023-10-31T03:19:08;12.35;;;6.95;;
63016;SDS011;50274;45.640;11.756;2023-10-31T03:21:33;11.60;;;6.63;;
63016;SDS011;50274;45.640;11.756;2023-10-31T03:23:59;13.93;;;6.78;;
63016;SDS011;50274;45.640;11.756;2023-10-31T03:26:26;15.27;;;7.25;;
63016;SDS011;50274;45.640;11.756;2023-10-31T03:28:52;14.43;;;7.13;;
63016;SDS011;50274;45.640;11.756;2023-10-31T03:31:22;12.43;;;7.20;;
63016;SDS011;50274;45.640;11.756;2023-10-31T03:33:48;13.95;;;8.07;;
63016;SDS011;50274;45.640;11.756;2023-10-31T03:36:15;15.27;;;8.27;;
63016;SDS011;50274;45.640;11.756;2023-10-31T03:38:40;19.77;;;9.30;;
63016;SDS011;50274;45.640;11.756;2023-10-31T03:41:07;12.52;;;8.02;;
63016;SDS011;50274;45.640;11.756;2023-10-31T03:43:33;19.13;;;10.18;;
63016;SDS011;50274;45.640;11.756;2023-10-31T03:45:59;16.98;;;9.63;;
63016;SDS011;50274;45.640;11.756;2023-10-31T03:48:25;17.47;;;10.50;;
63016;SDS011;50274;45.640;11.756;2023-10-31T03:50:51;19.45;;;10.90;;
63016;SDS011;50274;45.640;11.756;2023-10-31T03:53:17;18.75;;;10.32;;
63016;SDS011;50274;45.640;11.756;2023-10-31T03:55:43;18.73;;;10.07;;
63016;SDS011;50274;45.640;11.756;2023-10-31T03:58:09;19.20;;;11.70;;
63016;SDS011;50274;45.640;11.756;2023-10-31T04:00:35;18.23;;;11.32;;
63016;SDS011;50274;45.640;11.756;2023-10-31T04:03:01;17.00;;;11.45;;
63016;SDS011;50274;45.640;11.756;2023-10-31T04:05:27;21.23;;;11.37;;
63016;SDS011;50274;45.640;11.756;2023-10-31T04:07:53;22.02;;;12.32;;
63016;SDS011;50274;45.640;11.756;2023-10-31T04:10:19;21.88;;;12.40;;
63016;SDS011;50274;45.640;11.756;2023-10-31T04:12:45;22.48;;;12.80;;
63016;SDS011;50274;45.640;11.756;2023-10-31T04:15:11;19.60;;;10.90;;
63016;SDS011;50274;45.640;11.756;2023-10-31T04:17:39;20.75;;;12.15;;
63016;SDS011;50274;45.640;11.756;2023-10-31T04:20:05;17.85;;;10.85;;
63016;SDS011;50274;45.640;11.756;2023-10-31T04:22:31;18.58;;;11.27;;
63016;SDS011;50274;45.640;11.756;2023-10-31T04:24:57;17.70;;;10.43;;
63016;SDS011;50274;45.640;11.756;2023-10-31T04:27:23;22.52;;;12.35;;
63016;SDS011;50274;45.640;11.756;2023-10-31T04:29:49;21.27;;;11.30;;
63016;SDS011;50274;45.640;11.756;2023-10-31T04:32:14;19.55;;;10.38;;
63016;SDS011;50274;45.640;11.756;2023-10-31T04:34:40;16.30;;;9.35;;
63016;SDS011;50274;45.640;11.756;2023-10-31T04:37:06;14.63;;;8.30;;
63016;SDS011;50274;45.640;11.756;2023-10-31T04:39:32;15.82;;;8.52;;
63016;SDS011;50274;45.640;11.756;2023-10-31T04:41:58;15.47;;;7.07;;
63016;SDS011;50274;45.640;11.756;2023-10-31T04:44:24;14.97;;;7.90;;
63016;SDS011;50274;45.640;11.756;2023-10-31T04:46:49;14.05;;;7.13;;
63016;SDS011;50274;45.640;11.756;2023-10-31T04:49:15;14.03;;;6.80;;
63016;SDS011;50274;45.640;11.756;2023-10-31T04:51:42;11.82;;;6.28;;
63016;SDS011;50274;45.640;11.756;2023-10-31T04:54:08;9.80;;;5.20;;
63016;SDS011;50274;45.640;11.756;2023-10-31T04:56:34;10.18;;;4.75;;
63016;SDS011;50274;45.640;11.756;2023-10-31T04:59:00;8.20;;;4.60;;
63016;SDS011;50274;45.640;11.756;2023-10-31T05:01:26;10.98;;;4.57;;
63016;SDS011;50274;45.640;11.756;2023-10-31T05:03:52;8.65;;;4.50;;
63016;SDS011;50274;45.640;11.756;2023-10-31T05:06:19;12.43;;;4.77;;
63016;SDS011;50274;45.640;11.756;2023-10-31T05:08:46;10.05;;;3.95;;
63016;SDS011;50274;45.640;11.756;2023-10-31T05:11:12;8.73;;;3.88;;
63016;SDS011;50274;45.640;11.756;2023-10-31T05:13:38;9.00;;;4.15;;
63016;SDS011;50274;45.640;11.756;2023-10-31T05:16:04;9.80;;;4.23;;
63016;SDS011;50274;45.640;11.756;2023-10-31T05:18:31;10.82;;;4.28;;
63016;SDS011;50274;45.640;11.756;2023-10-31T05:20:56;8.35;;;4.32;;
63016;SDS011;50274;45.640;11.756;2023-10-31T05:23:22;11.57;;;5.47;;
63016;SDS011;50274;45.640;11.756;2023-10-31T05:25:48;7.77;;;3.80;;
63016;SDS011;50274;45.640;11.756;2023-10-31T05:28:14;11.77;;;4.63;;
63016;SDS011;50274;45.640;11.756;2023-10-31T05:30:40;10.23;;;3.85;;
63016;SDS011;50274;45.640;11.756;2023-10-31T05:33:06;11.43;;;4.07;;
63016;SDS011;50274;45.640;11.756;2023-10-31T05:35:32;11.10;;;4.13;;
63016;SDS011;50274;45.640;11.756;2023-10-31T05:37:58;12.65;;;4.45;;
63016;SDS011;50274;45.640;11.756;2023-10-31T05:40:24;8.93;;;4.07;;
63016;SDS011;50274;45.640;11.756;2023-10-31T05:42:52;7.55;;;4.00;;
63016;SDS011;50274;45.640;11.756;2023-10-31T05:45:18;8.20;;;4.28;;
63016;SDS011;50274;45.640;11.756;2023-10-31T05:47:44;10.52;;;4.65;;
63016;SDS011;50274;45.640;11.756;2023-10-31T05:50:12;10.73;;;3.83;;
63016;SDS011;50274;45.640;11.756;2023-10-31T05:52:38;9.45;;;4.10;;
63016;SDS011;50274;45.640;11.756;2023-10-31T05:55:04;10.82;;;4.50;;
63016;SDS011;50274;45.640;11.756;2023-10-31T05:57:33;10.70;;;4.30;;
63016;SDS011;50274;45.640;11.756;2023-10-31T05:59:59;9.93;;;3.88;;
63016;SDS011;50274;45.640;11.756;2023-10-31T06:02:28;8.93;;;3.92;;
63016;SDS011;50274;45.640;11.756;2023-10-31T06:04:55;9.05;;;4.30;;
63016;SDS011;50274;45.640;11.756;2023-10-31T06:07:21;12.13;;;4.88;;
63016;SDS011;50274;45.640;11.756;2023-10-31T06:09:47;8.33;;;3.43;;
63016;SDS011;50274;45.640;11.756;2023-10-31T06:12:13;11.88;;;4.07;;
63016;SDS011;50274;45.640;11.756;2023-10-31T06:14:38;7.75;;;3.75;;
63016;SDS011;50274;45.640;11.756;2023-10-31T06:17:04;6.37;;;3.03;;
63016;SDS011;50274;45.640;11.756;2023-10-31T06:19:33;7.47;;;2.80;;
63016;SDS011;50274;45.640;11.756;2023-10-31T06:22:00;10.15;;;3.50;;
63016;SDS011;50274;45.640;11.756;2023-10-31T06:24:28;7.03;;;2.70;;
63016;SDS011;50274;45.640;11.756;2023-10-31T06:26:54;8.02;;;3.22;;
63016;SDS011;50274;45.640;11.756;2023-10-31T06:29:20;9.52;;;3.70;;
63016;SDS011;50274;45.640;11.756;2023-10-31T06:31:46;7.97;;;3.72;;
63016;SDS011;50274;45.640;11.756;2023-10-31T06:34:12;8.00;;;3.50;;
63016;SDS011;50274;45.640;11.756;2023-10-31T06:36:38;10.45;;;3.67;;
63016;SDS011;50274;45.640;11.756;2023-10-31T06:39:04;8.85;;;3.88;;
63016;SDS011;50274;45.640;11.756;2023-10-31T06:41:30;9.20;;;3.40;;
63016;SDS011;50274;45.640;11.756;2023-10-31T06:43:55;9.65;;;3.63;;
63016;SDS011;50274;45.640;11.756;2023-10-31T06:46:21;11.97;;;4.00;;
63016;SDS011;50274;45.640;11.756;2023-10-31T06:48:47;11.30;;;3.78;;
63016;SDS011;50274;45.640;11.756;2023-10-31T06:51:13;8.43;;;3.60;;
63016;SDS011;50274;45.640;11.756;2023-10-31T06:53:38;8.90;;;3.57;;
63016;SDS011;50274;45.640;11.756;2023-10-31T06:56:04;7.97;;;3.70;;
63016;SDS011;50274;45.640;11.756;2023-10-31T06:58:30;9.83;;;3.37;;
63016;SDS011;50274;45.640;11.756;2023-10-31T07:00:56;7.88;;;3.28;;
63016;SDS011;50274;45.640;11.756;2023-10-31T07:03:23;8.60;;;3.25;;
63016;SDS011;50274;45.640;11.756;2023-10-31T07:05:49;7.55;;;3.53;;
63016;SDS011;50274;45.640;11.756;2023-10-31T07:08:15;7.10;;;3.03;;
63016;SDS011;50274;45.640;11.756;2023-10-31T07:10:41;8.95;;;3.25;;
63016;SDS011;50274;45.640;11.756;2023-10-31T07:13:07;9.65;;;3.58;;
63016;SDS011;50274;45.640;11.756;2023-10-31T07:15:32;12.30;;;3.47;;
63016;SDS011;50274;45.640;11.756;2023-10-31T07:18:05;7.60;;;3.45;;
63016;SDS011;50274;45.640;11.756;2023-10-31T07:20:35;7.78;;;3.20;;
63016;SDS011;50274;45.640;11.756;2023-10-31T07:23:07;8.60;;;3.60;;
63016;SDS011;50274;45.640;11.756;2023-10-31T07:25:34;8.67;;;3.43;;
63016;SDS011;50274;45.640;11.756;2023-10-31T07:28:09;7.70;;;3.45;;
63016;SDS011;50274;45.640;11.756;2023-10-31T07:30:59;7.68;;;3.42;;
63016;SDS011;50274;45.640;11.756;2023-10-31T07:33:25;8.68;;;3.90;;
63016;SDS011;50274;45.640;11.756;2023-10-31T07:35:51;9.07;;;3.70;;
63016;SDS011;50274;45.640;11.756;2023-10-31T07:38:17;8.93;;;3.60;;
63016;SDS011;50274;45.640;11.756;2023-10-31T07:40:43;7.35;;;3.45;;
63016;SDS011;50274;45.640;11.756;2023-10-31T07:43:09;8.70;;;3.40;;
63016;SDS011;50274;45.640;11.756;2023-10-31T07:45:34;9.52;;;3.53;;
63016;SDS011;50274;45.640;11.756;2023-10-31T07:48:01;12.30;;;4.43;;
63016;SDS011;50274;45.640;11.756;2023-10-31T07:50:27;9.80;;;4.07;;
63016;SDS011;50274;45.640;11.756;2023-10-31T07:52:53;7.38;;;3.72;;
63016;SDS011;50274;45.640;11.756;2023-10-31T07:55:19;11.18;;;3.78;;
63016;SDS011;50274;45.640;11.756;2023-10-31T07:57:44;10.13;;;3.97;;
63016;SDS011;50274;45.640;11.756;2023-10-31T08:00:11;13.00;;;4.32;;
63016;SDS011;50274;45.640;11.756;2023-10-31T08:02:37;15.93;;;4.22;;
63016;SDS011;50274;45.640;11.756;2023-10-31T08:05:03;9.70;;;3.83;;
63016;SDS011;50274;45.640;11.756;2023-10-31T08:07:29;9.73;;;3.47;;
63016;SDS011;50274;45.640;11.756;2023-10-31T08:09:58;9.68;;;4.38;;
63016;SDS011;50274;45.640;11.756;2023-10-31T08:12:24;9.35;;;3.63;;
63016;SDS011;50274;45.640;11.756;2023-10-31T08:14:50;9.93;;;3.73;;
63016;SDS011;50274;45.640;11.756;2023-10-31T08:17:15;10.23;;;4.13;;
63016;SDS011;50274;45.640;11.756;2023-10-31T08:19:41;9.80;;;3.30;;
63016;SDS011;50274;45.640;11.756;2023-10-31T08:22:07;8.43;;;3.43;;
63016;SDS011;50274;45.640;11.756;2023-10-31T08:24:33;8.57;;;2.90;;
63016;SDS011;50274;45.640;11.756;2023-10-31T08:27:01;8.90;;;3.70;;
63016;SDS011;50274;45.640;11.756;2023-10-31T08:29:27;10.15;;;3.63;;
63016;SDS011;50274;45.640;11.756;2023-10-31T08:31:53;10.27;;;3.13;;
63016;SDS011;50274;45.640;11.756;2023-10-31T08:34:19;8.13;;;2.93;;
63016;SDS011;50274;45.640;11.756;2023-10-31T08:36:45;9.73;;;3.10;;
63016;SDS011;50274;45.640;11.756;2023-10-31T08:39:11;10.07;;;2.90;;
63016;SDS011;50274;45.640;11.756;2023-10-31T08:41:36;12.93;;;3.10;;
63016;SDS011;50274;45.640;11.756;2023-10-31T08:44:04;10.93;;;3.40;;
63016;SDS011;50274;45.640;11.756;2023-10-31T08:46:30;7.30;;;2.93;;
63016;SDS011;50274;45.640;11.756;2023-10-31T08:48:56;8.82;;;3.40;;
63016;SDS011;50274;45.640;11.756;2023-10-31T08:51:22;10.32;;;4.07;;
63016;SDS011;50274;45.640;11.756;2023-10-31T08:53:48;10.47;;;4.60;;
63016;SDS011;50274;45.640;11.756;2023-10-31T08:56:14;12.02;;;3.72;;
63016;SDS011;50274;45.640;11.756;2023-10-31T08:58:40;7.57;;;3.35;;
63016;SDS011;50274;45.640;11.756;2023-10-31T09:01:06;9.55;;;3.45;;
63016;SDS011;50274;45.640;11.756;2023-10-31T09:03:31;8.47;;;3.03;;
63016;SDS011;50274;45.640;11.756;2023-10-31T09:05:57;7.30;;;1.92;;
63016;SDS011;50274;45.640;11.756;2023-10-31T09:08:23;5.93;;;1.30;;
63016;SDS011;50274;45.640;11.756;2023-10-31T09:10:49;6.88;;;0.80;;
63016;SDS011;50274;45.640;11.756;2023-10-31T09:13:15;3.97;;;0.63;;
63016;SDS011;50274;45.640;11.756;2023-10-31T09:15:40;3.53;;;0.50;;
63016;SDS011;50274;45.640;11.756;2023-10-31T09:18:06;4.40;;;0.40;;
63016;SDS011;50274;45.640;11.756;2023-10-31T09:20:32;4.53;;;0.60;;
63016;SDS011;50274;45.640;11.756;2023-10-31T09:22:58;3.73;;;0.80;;
63016;SDS011;50274;45.640;11.756;2023-10-31T09:25:24;4.28;;;0.70;;
63016;SDS011;50274;45.640;11.756;2023-10-31T09:27:50;4.77;;;0.80;;
63016;SDS011;50274;45.640;11.756;2023-10-31T09:30:15;3.90;;;0.77;;
63016;SDS011;50274;45.640;11.756;2023-10-31T09:32:41;3.40;;;0.60;;
63016;SDS011;50274;45.640;11.756;2023-10-31T09:35:07;3.15;;;0.82;;
63016;SDS011;50274;45.640;11.756;2023-10-31T09:37:33;3.25;;;0.75;;
63016;SDS011;50274;45.640;11.756;2023-10-31T09:39:59;4.50;;;0.83;;
63016;SDS011;50274;45.640;11.756;2023-10-31T09:42:24;3.33;;;0.90;;
63016;SDS011;50274;45.640;11.756;2023-10-31T09:44:50;5.55;;;1.00;;
63016;SDS011;50274;45.640;11.756;2023-10-31T09:47:16;3.83;;;1.00;;
63016;SDS011;50274;45.640;11.756;2023-10-31T09:49:42;3.53;;;0.85;;
63016;SDS011;50274;45.640;11.756;2023-10-31T09:52:09;4.22;;;0.90;;
63016;SDS011;50274;45.640;11.756;2023-10-31T09:54:35;5.80;;;1.50;;
63016;SDS011;50274;45.640;11.756;2023-10-31T09:57:03;3.80;;;0.87;;
63016;SDS011;50274;45.640;11.756;2023-10-31T09:59:29;2.65;;;0.43;;
63016;SDS011;50274;45.640;11.756;2023-10-31T10:01:55;1.45;;;0.20;;
63016;SDS011;50274;45.640;11.756;2023-10-31T10:04:22;1.83;;;0.30;;
63016;SDS011;50274;45.640;11.756;2023-10-31T10:07:06;1.40;;;0.20;;
63016;SDS011;50274;45.640;11.756;2023-10-31T10:09:32;3.35;;;0.22;;
63016;SDS011;50274;45.640;11.756;2023-10-31T10:12:00;1.98;;;0.30;;
63016;SDS011;50274;45.640;11.756;2023-10-31T10:14:27;2.10;;;0.20;;
63016;SDS011;50274;45.640;11.756;2023-10-31T10:16:54;2.70;;;0.30;;
63016;SDS011;50274;45.640;11.756;2023-10-31T10:19:21;3.97;;;0.63;;
63016;SDS011;50274;45.640;11.756;2023-10-31T10:21:57;1.77;;;0.30;;
63016;SDS011;50274;45.640;11.756;2023-10-31T10:24:24;1.70;;;0.20;;
63016;SDS011;50274;45.640;11.756;2023-10-31T10:26:50;1.50;;;0.30;;
63016;SDS011;50274;45.640;11.756;2023-10-31T10:29:18;1.50;;;0.20;;
63016;SDS011;50274;45.640;11.756;2023-10-31T10:31:48;2.87;;;0.30;;
63016;SDS011;50274;45.640;11.756;2023-10-31T10:34:14;1.90;;;0.20;;
63016;SDS011;50274;45.640;11.756;2023-10-31T10:36:41;2.17;;;0.20;;
63016;SDS011;50274;45.640;11.756;2023-10-31T10:39:11;2.08;;;0.22;;
63016;SDS011;50274;45.640;11.756;2023-10-31T10:41:37;1.63;;;0.20;;
63016;SDS011;50274;45.640;11.756;2023-10-31T10:44:07;3.03;;;0.45;;
63016;SDS011;50274;45.640;11.756;2023-10-31T10:46:33;1.90;;;0.40;;
63016;SDS011;50274;45.640;11.756;2023-10-31T10:49:03;2.13;;;0.40;;
63016;SDS011;50274;45.640;11.756;2023-10-31T10:55:04;2.67;;;0.30;;
63016;SDS011;50274;45.640;11.756;2023-10-31T10:57:14;3.53;;;0.40;;
63016;SDS011;50274;45.640;11.756;2023-10-31T10:59:47;1.23;;;0.20;;
63016;SDS011;50274;45.640;11.756;2023-10-31T11:02:16;1.35;;;0.30;;
63016;SDS011;50274;45.640;11.756;2023-10-31T11:04:43;2.23;;;0.50;;
63016;SDS011;50274;45.640;11.756;2023-10-31T11:07:09;1.75;;;0.40;;
63016;SDS011;50274;45.640;11.756;2023-10-31T11:09:36;2.30;;;0.40;;
63016;SDS011;50274;45.640;11.756;2023-10-31T11:12:03;3.30;;;0.40;;
63016;SDS011;50274;45.640;11.756;2023-10-31T11:14:32;3.05;;;0.40;;
63016;SDS011;50274;45.640;11.756;2023-10-31T11:17:04;4.23;;;0.50;;
63016;SDS011;50274;45.640;11.756;2023-10-31T11:19:36;2.90;;;0.38;;
63016;SDS011;50274;45.640;11.756;2023-10-31T11:22:03;3.33;;;0.50;;
63016;SDS011;50274;45.640;11.756;2023-10-31T11:24:31;2.38;;;0.40;;
63016;SDS011;50274;45.640;11.756;2023-10-31T11:26:59;3.45;;;0.70;;
63016;SDS011;50274;45.640;11.756;2023-10-31T11:29:26;3.10;;;0.60;;
63016;SDS011;50274;45.640;11.756;2023-10-31T11:31:55;3.13;;;0.50;;
63016;SDS011;50274;45.640;11.756;2023-10-31T11:34:21;3.97;;;0.50;;
63016;SDS011;50274;45.640;11.756;2023-10-31T11:36:47;4.13;;;0.60;;
63016;SDS011;50274;45.640;11.756;2023-10-31T11:39:17;3.47;;;0.40;;
63016;SDS011;50274;45.640;11.756;2023-10-31T11:41:49;2.03;;;0.30;;
63016;SDS011;50274;45.640;11.756;2023-10-31T11:44:16;2.38;;;0.50;;
63016;SDS011;50274;45.640;11.756;2023-10-31T11:46:42;3.97;;;0.60;;
63016;SDS011;50274;45.640;11.756;2023-10-31T11:49:08;4.88;;;0.55;;
63016;SDS011;50274;45.640;11.756;2023-10-31T11:51:34;2.40;;;0.50;;
63016;SDS011;50274;45.640;11.756;2023-10-31T11:54:03;4.60;;;0.60;;
63016;SDS011;50274;45.640;11.756;2023-10-31T11:56:33;3.08;;;0.60;;
63016;SDS011;50274;45.640;11.756;2023-10-31T11:59:01;4.50;;;0.50;;
63016;SDS011;50274;45.640;11.756;2023-10-31T12:01:28;3.40;;;0.73;;
63016;SDS011;50274;45.640;11.756;2023-10-31T12:03:54;3.00;;;0.38;;
63016;SDS011;50274;45.640;11.756;2023-10-31T12:06:20;2.60;;;0.40;;
63016;SDS011;50274;45.640;11.756;2023-10-31T12:08:46;1.40;;;0.30;;
63016;SDS011;50274;45.640;11.756;2023-10-31T12:11:14;2.60;;;0.50;;
63016;SDS011;50274;45.640;11.756;2023-10-31T12:13:51;2.58;;;0.40;;
63016;SDS011;50274;45.640;11.756;2023-10-31T12:16:25;2.47;;;0.40;;
63016;SDS011;50274;45.640;11.756;2023-10-31T12:18:59;2.80;;;0.55;;
63016;SDS011;50274;45.640;11.756;2023-10-31T12:24:07;2.97;;;0.63;;
63016;SDS011;50274;45.640;11.756;2023-10-31T12:26:37;3.53;;;0.40;;
63016;SDS011;50274;45.640;11.756;2023-10-31T12:29:10;2.60;;;0.50;;
63016;SDS011;50274;45.640;11.756;2023-10-31T12:34:19;4.33;;;0.83;;
63016;SDS011;50274;45.640;11.756;2023-10-31T12:36:47;3.20;;;0.60;;
63016;SDS011;50274;45.640;11.756;2023-10-31T12:39:15;4.20;;;0.77;;
63016;SDS011;50274;45.640;11.756;2023-10-31T12:41:43;4.10;;;0.60;;
63016;SDS011;50274;45.640;11.756;2023-10-31T12:44:09;3.08;;;0.63;;
63016;SDS011;50274;45.640;11.756;2023-10-31T12:46:40;2.20;;;0.27;;
63016;SDS011;50274;45.640;11.756;2023-10-31T12:49:13;2.75;;;0.40;;
63016;SDS011;50274;45.640;11.756;2023-10-31T12:54:41;4.72;;;0.40;;
63016;SDS011;50274;45.640;11.756;2023-10-31T12:57:07;2.53;;;0.43;;
63016;SDS011;50274;45.640;11.756;2023-10-31T12:59:35;3.40;;;0.95;;
63016;SDS011;50274;45.640;11.756;2023-10-31T13:02:05;4.53;;;0.43;;
63016;SDS011;50274;45.640;11.756;2023-10-31T13:04:32;2.67;;;0.43;;
63016;SDS011;50274;45.640;11.756;2023-10-31T13:06:59;3.17;;;0.50;;
63016;SDS011;50274;45.640;11.756;2023-10-31T13:09:28;2.73;;;0.40;;
63016;SDS011;50274;45.640;11.756;2023-10-31T13:12:03;3.67;;;0.50;;
63016;SDS011;50274;45.640;11.756;2023-10-31T13:14:30;2.60;;;0.43;;
63016;SDS011;50274;45.640;11.756;2023-10-31T13:16:57;2.92;;;0.50;;
63016;SDS011;50274;45.640;11.756;2023-10-31T13:19:24;2.97;;;0.60;;
63016;SDS011;50274;45.640;11.756;2023-10-31T13:21:49;2.43;;;0.60;;
63016;SDS011;50274;45.640;11.756;2023-10-31T13:24:16;3.03;;;0.60;;
63016;SDS011;50274;45.640;11.756;2023-10-31T13:26:42;2.88;;;0.50;;
63016;SDS011;50274;45.640;11.756;2023-10-31T13:29:09;3.80;;;0.63;;
63016;SDS011;50274;45.640;11.756;2023-10-31T13:31:36;2.92;;;0.50;;
63016;SDS011;50274;45.640;11.756;2023-10-31T13:34:03;2.92;;;0.65;;
63016;SDS011;50274;45.640;11.756;2023-10-31T13:36:29;3.30;;;0.57;;
63016;SDS011;50274;45.640;11.756;2023-10-31T13:38:54;2.60;;;0.60;;
63016;SDS011;50274;45.640;11.756;2023-10-31T13:41:20;4.20;;;0.60;;
63016;SDS011;50274;45.640;11.756;2023-10-31T13:43:46;5.60;;;0.60;;
63016;SDS011;50274;45.640;11.756;2023-10-31T13:46:13;3.90;;;0.47;;
63016;SDS011;50274;45.640;11.756;2023-10-31T13:48:39;3.28;;;0.57;;
63016;SDS011;50274;45.640;11.756;2023-10-31T13:51:05;3.97;;;0.60;;
63016;SDS011;50274;45.640;11.756;2023-10-31T13:53:30;3.57;;;0.73;;
63016;SDS011;50274;45.640;11.756;2023-10-31T13:55:56;6.18;;;0.82;;
63016;SDS011;50274;45.640;11.756;2023-10-31T13:58:22;5.13;;;1.17;;
63016;SDS011;50274;45.640;11.756;2023-10-31T14:00:48;3.80;;;0.95;;
63016;SDS011;50274;45.640;11.756;2023-10-31T14:03:14;4.28;;;0.80;;
63016;SDS011;50274;45.640;11.756;2023-10-31T14:05:40;3.20;;;0.70;;
63016;SDS011;50274;45.640;11.756;2023-10-31T14:08:07;2.95;;;0.45;;
63016;SDS011;50274;45.640;11.756;2023-10-31T14:10:33;2.08;;;0.30;;
63016;SDS011;50274;45.640;11.756;2023-10-31T14:12:59;3.90;;;0.63;;
63016;SDS011;50274;45.640;11.756;2023-10-31T14:15:24;2.87;;;0.60;;
63016;SDS011;50274;45.640;11.756;2023-10-31T14:17:50;4.57;;;0.40;;
63016;SDS011;50274;45.640;11.756;2023-10-31T14:20:16;2.85;;;0.35;;
63016;SDS011;50274;45.640;11.756;2023-10-31T14:22:47;3.00;;;0.40;;
63016;SDS011;50274;45.640;11.756;2023-10-31T14:25:16;3.05;;;0.30;;
63016;SDS011;50274;45.640;11.756;2023-10-31T14:27:43;2.83;;;0.30;;
63016;SDS011;50274;45.640;11.756;2023-10-31T14:30:11;7.00;;;0.57;;
63016;SDS011;50274;45.640;11.756;2023-10-31T14:32:38;3.20;;;0.40;;
63016;SDS011;50274;45.640;11.756;2023-10-31T14:35:04;2.83;;;0.40;;
63016;SDS011;50274;45.640;11.756;2023-10-31T14:37:31;2.28;;;0.57;;
63016;SDS011;50274;45.640;11.756;2023-10-31T14:39:57;2.35;;;0.22;;